createdAt,value
2023-03-18T00:00:01.331Z,88.9
2023-03-18T00:05:01.468Z,88.4
2023-03-18T00:10:01.397Z,87.2
2023-03-18T00:15:01.455Z,88.0
2023-03-18T00:20:01.320Z,90.5
2023-03-18T00:25:06.473Z,92.3
2023-03-18T00:30:01.320Z,93.3
2023-03-18T00:35:01.416Z,90.7
2023-03-18T00:40:01.257Z,90.2
2023-03-18T00:45:01.558Z,83.5
2023-03-18T00:50:02.574Z,78.8
2023-03-18T01:00:01.461Z,73.7
2023-03-18T01:05:01.421Z,76.6
2023-03-18T01:10:06.401Z,77.4
2023-03-18T01:15:01.448Z,82.4
2023-03-18T01:20:01.319Z,85.0
2023-03-18T01:25:01.455Z,88.6
2023-03-18T01:30:01.409Z,86.2
2023-03-18T01:35:01.479Z,83.3
2023-03-18T01:40:02.372Z,80.7
2023-03-18T01:45:01.411Z,63.6
2023-03-18T02:00:01.910Z,74.4
2023-03-18T02:05:01.967Z,72.3
2023-03-18T02:10:01.813Z,73.1
2023-03-18T02:15:01.889Z,75.3
2023-03-18T02:20:01.813Z,74.7
2023-03-18T02:25:06.900Z,75.0
2023-03-18T02:30:06.875Z,61.4
2023-03-18T02:35:02.905Z,63.6
2023-03-18T02:40:01.755Z,63.9
2023-03-18T03:00:01.669Z,82.4
2023-03-18T03:05:01.554Z,80.4
2023-03-18T03:10:01.478Z,82.1
2023-03-18T03:15:01.606Z,82.1
2023-03-18T03:20:01.512Z,81.8
2023-03-18T03:25:01.609Z,81.6
2023-03-18T03:30:01.477Z,81.9
2023-03-18T03:35:01.472Z,82.5
2023-03-18T03:40:01.558Z,82.9
2023-03-18T03:45:01.530Z,81.8
2023-03-18T03:50:01.465Z,81.0
2023-03-18T03:55:01.592Z,81.7
2023-03-18T04:00:01.483Z,80.5
2023-03-18T04:05:01.581Z,80.0
2023-03-18T04:10:01.460Z,80.5
2023-03-18T04:15:01.513Z,81.5
2023-03-18T04:20:01.503Z,82.6
2023-03-18T04:25:06.509Z,72.1
2023-03-18T04:30:01.456Z,72.5
2023-03-18T04:35:01.495Z,73.5
2023-03-18T04:40:01.550Z,73.0
2023-03-18T04:45:01.611Z,71.8
2023-03-18T04:50:01.417Z,82.2
2023-03-18T04:55:01.738Z,81.6
2023-03-18T05:00:06.451Z,82.7
2023-03-18T05:05:01.493Z,83.4
2023-03-18T05:10:01.428Z,69.9
2023-03-18T05:15:01.483Z,71.1
2023-03-18T05:20:01.421Z,71.4
2023-03-18T05:25:02.423Z,73.4
2023-03-18T05:30:01.466Z,72.7
2023-03-18T05:35:01.481Z,87.2
2023-03-18T05:40:01.457Z,88.6
2023-03-18T05:45:01.452Z,87.7
2023-03-18T05:50:01.762Z,87.0
2023-03-18T05:55:01.706Z,87.1
2023-03-18T06:00:01.460Z,86.4
2023-03-18T06:05:06.450Z,85.2
2023-03-18T06:10:01.309Z,87.5
2023-03-18T06:15:01.500Z,84.7
2023-03-18T06:20:01.410Z,84.1
2023-03-18T06:25:01.454Z,83.2
2023-03-18T06:30:01.428Z,81.9
2023-03-18T06:35:01.621Z,80.0
2023-03-18T06:40:01.388Z,81.4
2023-03-18T06:45:01.760Z,81.6
2023-03-18T06:55:01.478Z,81.3
2023-03-18T07:00:01.366Z,81.6
2023-03-18T07:05:06.483Z,78.4
2023-03-18T07:10:01.397Z,76.5
2023-03-18T07:20:01.389Z,73.8
2023-03-18T07:25:06.582Z,71.9
2023-03-18T07:40:01.375Z,77.4
2023-03-18T07:50:01.701Z,81.4
2023-03-18T07:55:01.492Z,82.8
2023-03-18T08:00:01.366Z,84.3
2023-03-18T08:05:02.042Z,84.3
2023-03-18T08:10:01.361Z,83.1
2023-03-18T08:15:01.505Z,79.6
2023-03-18T08:25:01.475Z,78.0
2023-03-18T08:30:04.234Z,76.7
2023-03-18T08:35:01.384Z,77.7
2023-03-18T08:40:01.347Z,77.0
2023-03-18T08:45:01.741Z,78.0
2023-03-18T08:50:01.473Z,79.2
2023-03-18T08:55:02.588Z,79.7
2023-03-18T09:00:01.340Z,79.4
2023-03-18T09:05:06.423Z,81.5
2023-03-18T09:10:01.350Z,83.1
2023-03-18T09:15:01.456Z,83.6
2023-03-18T09:20:01.427Z,85.2
2023-03-18T09:25:01.545Z,87.0
2023-03-18T09:30:01.333Z,89.2
2023-03-18T09:35:01.451Z,88.2
2023-03-18T09:45:01.482Z,87.4
2023-03-18T09:50:01.324Z,84.3
2023-03-18T10:10:01.083Z,83.0
2023-03-18T10:20:00.951Z,85.1
2023-03-18T10:25:01.049Z,85.7
2023-03-18T10:35:02.081Z,91.5
2023-03-18T10:40:00.941Z,93.2
2023-03-18T10:50:00.947Z,95.8
2023-03-18T10:55:01.312Z,91.8
2023-03-18T11:00:00.944Z,91.3
2023-03-18T11:05:01.156Z,90.5
2023-03-18T11:10:00.945Z,89.9
2023-03-18T11:15:01.029Z,88.3
2023-03-18T11:20:00.981Z,88.6
2023-03-18T11:40:01.854Z,91.6
2023-03-18T12:05:01.336Z,86.0
2023-03-18T12:20:01.648Z,89.4
2023-03-18T12:40:02.172Z,93.2
2023-03-18T12:50:01.805Z,91.6
2023-03-18T13:00:01.946Z,91.0
2023-03-18T13:05:01.930Z,89.6
2023-03-18T13:10:01.828Z,92.2
2023-03-18T13:30:01.521Z,93.8
2023-03-18T13:35:01.414Z,90.0
2023-03-18T13:50:01.755Z,87.2
2023-03-18T13:55:01.915Z,95.5
2023-03-18T14:00:02.060Z,94.5
2023-03-18T14:20:01.294Z,82.4
2023-03-18T14:25:06.294Z,83.7
2023-03-18T14:40:01.652Z,81.0
2023-03-18T14:45:01.526Z,80.4
2023-03-18T14:50:01.466Z,82.1
2023-03-18T14:55:01.643Z,81.1
2023-03-18T15:00:01.540Z,81.2
2023-03-18T15:05:01.540Z,80.9
2023-03-18T15:10:01.465Z,79.9
2023-03-18T15:15:01.864Z,78.6
2023-03-18T15:20:01.867Z,79.6
2023-03-18T15:25:01.533Z,79.4
2023-03-18T15:30:01.440Z,79.4
2023-03-18T15:40:01.521Z,79.9
2023-03-18T16:05:04.861Z,80.8
2023-03-18T16:10:01.258Z,81.0
2023-03-18T16:15:01.320Z,78.3
2023-03-18T16:20:01.276Z,77.8
2023-03-18T16:25:01.333Z,77.1
2023-03-18T16:30:01.394Z,75.2
2023-03-18T16:40:01.259Z,80.7
2023-03-18T16:45:01.386Z,90.7
2023-03-18T16:50:01.259Z,107.2
2023-03-18T16:55:01.419Z,122.0
2023-03-18T17:00:01.716Z,133.7
2023-03-18T17:10:01.290Z,147.8
2023-03-18T17:15:01.650Z,153.0
2023-03-18T17:20:01.257Z,160.3
2023-03-18T17:40:01.285Z,124.4
2023-03-18T17:45:06.319Z,123.2
2023-03-18T18:00:06.779Z,88.8
2023-03-18T18:20:02.016Z,76.6
2023-03-18T18:25:01.915Z,69.0
2023-03-18T18:30:01.973Z,46.1
2023-03-18T18:35:01.979Z,54.4
2023-03-18T18:40:02.272Z,58.7
2023-03-18T18:45:06.968Z,58.7
2023-03-18T18:50:02.027Z,61.8
2023-03-18T18:55:01.892Z,77.5
2023-03-18T19:00:02.039Z,77.0
2023-03-18T19:05:01.890Z,77.1
2023-03-18T19:10:01.920Z,77.9
2023-03-18T19:15:01.870Z,72.2
2023-03-18T19:20:01.834Z,73.2
2023-03-18T19:25:01.941Z,74.6
2023-03-18T19:30:06.799Z,76.0
2023-03-18T19:35:01.948Z,75.5
2023-03-18T19:40:01.846Z,86.6
2023-03-18T19:45:06.948Z,87.2
2023-03-18T19:50:02.012Z,88.7
2023-03-18T19:55:01.979Z,89.6
2023-03-18T20:00:02.418Z,93.3
2023-03-18T20:20:01.161Z,101.4
2023-03-18T20:25:01.290Z,90.1
2023-03-18T20:30:00.991Z,86.3
2023-03-18T20:35:03.886Z,87.0
2023-03-18T20:40:01.004Z,84.5
2023-03-18T20:45:01.235Z,77.5
2023-03-18T20:50:00.909Z,78.1
2023-03-18T20:55:11.125Z,76.4
2023-03-18T21:00:00.979Z,73.4
2023-03-18T21:05:06.028Z,73.9
2023-03-18T21:10:01.029Z,60.6
2023-03-18T21:15:01.184Z,78.6
2023-03-18T21:20:22.006Z,103.6
2023-03-18T21:25:01.125Z,118.4
2023-03-18T21:30:00.959Z,124.1
2023-03-18T21:35:01.061Z,157.6
2023-03-18T21:40:05.956Z,159.8
2023-03-18T21:45:01.020Z,151.4
2023-03-18T21:50:00.981Z,143.3
2023-03-18T21:55:06.126Z,133.9
2023-03-18T22:00:01.007Z,142.0
2023-03-18T22:05:02.012Z,139.4
2023-03-18T22:10:00.990Z,135.8
2023-03-18T22:15:01.160Z,144.4
2023-03-18T22:20:00.996Z,158.9
2023-03-18T22:25:01.118Z,149.6
2023-03-18T22:30:00.976Z,144.6
2023-03-18T22:35:01.134Z,148.0
2023-03-18T22:40:01.662Z,140.1
2023-03-18T22:45:01.154Z,131.6
2023-03-18T22:50:00.970Z,117.2
2023-03-18T22:55:01.129Z,116.1
2023-03-18T23:00:06.085Z,110.6
2023-03-18T23:05:01.051Z,106.0
2023-03-18T23:10:00.981Z,109.5
2023-03-18T23:15:08.178Z,108.3
2023-03-18T23:20:00.988Z,96.3
2023-03-18T23:25:01.090Z,89.5
2023-03-18T23:35:01.213Z,99.7
2023-03-18T23:40:00.999Z,100.0
2023-03-18T23:45:01.202Z,102.5
2023-03-18T23:50:00.994Z,99.6
2023-03-18T23:55:01.162Z,91.6
